^^
Grace C. Lehan Memorial Weather Station Historical Data
Daily Summary for September 11, 2021 Units:  Both    English   Metric
Daily Weekly Monthly Yearly
  High: Low: Average:
Temperature: 91.4 °F /  33 °C 73 °F /  22.8 °C 79.9 °F /  26.6 °C
Dew Point: 78 °F /  25.6 °C 70.6 °F /  21.4 °C 74 °F /  23.3 °C
Humidity: 94% 62.3% 83%
Wind Speed: 4mph /  6.4km/h - 0.2mph /  0.3km/h
Wind Gust: 10mph /  16.1km/h - -
Wind- - SW
Pressure: 30.02 in /  1016.5 hPa 29.89 in /  1012.1 hPa -
Precipitation: 0.00 in /  0 mm    
 
 
Tabular Data for September 11, 2021
Time Temperature Dew Point Pressure Wind Wind Speed Wind Gust Humidity Rainfall Rate (Hourly) solar
00:09 75.8 °F /  24.3 °C 72.9 °F /  22.7 °C 30.01in /  1016.1hPa Calm     91% 0.00in /  0mm 0 W/m2
00:14 75.7 °F /  24.3 °C 72.9 °F /  22.7 °C 30.01in /  1016.1hPa Calm     91% 0.00in /  0mm 0 W/m2
00:19 75.7 °F /  24.3 °C 72.9 °F /  22.7 °C 30.01in /  1016.1hPa Calm     91% 0.00in /  0mm 0 W/m2
00:24 75.6 °F /  24.2 °C 72.8 °F /  22.7 °C 30.01in /  1016.1hPa Calm     91% 0.00in /  0mm 0 W/m2
00:29 75.6 °F /  24.2 °C 72.8 °F /  22.7 °C 30.01in /  1016.1hPa Calm     91% 0.00in /  0mm 0 W/m2
00:34 75.6 °F /  24.2 °C 72.8 °F /  22.7 °C 30.01in /  1016.1hPa Calm     91% 0.00in /  0mm 0 W/m2
00:39 75.5 °F /  24.2 °C 72.7 °F /  22.6 °C 30.02in /  1016.5hPa Calm     91% 0.00in /  0mm 0 W/m2
00:44 75.5 °F /  24.2 °C 72.7 °F /  22.6 °C 30.02in /  1016.5hPa Calm     91% 0.00in /  0mm 0 W/m2
00:49 75.5 °F /  24.2 °C 72.7 °F /  22.6 °C 30.02in /  1016.5hPa Calm     91% 0.00in /  0mm 0 W/m2
00:54 75.4 °F /  24.1 °C 72.6 °F /  22.6 °C 30.01in /  1016.1hPa Calm     91% 0.00in /  0mm 0 W/m2
00:59 75.4 °F /  24.1 °C 72.6 °F /  22.6 °C 30.01in /  1016.1hPa Calm   1mph /  1.6km/h 91% 0.00in /  0mm 0 W/m2
01:04 75.4 °F /  24.1 °C 72.6 °F /  22.6 °C 30.01in /  1016.1hPa Calm   1mph /  1.6km/h 91% 0.00in /  0mm 0 W/m2
01:09 75.3 °F /  24.1 °C 72.5 °F /  22.5 °C 30.01in /  1016.1hPa Calm     91% 0.00in /  0mm 0 W/m2
01:14 75.3 °F /  24.1 °C 72.5 °F /  22.5 °C 30.01in /  1016.1hPa Calm     91% 0.00in /  0mm 0 W/m2
01:19 75.3 °F /  24.1 °C 72.5 °F /  22.5 °C 30.01in /  1016.1hPa Calm   1mph /  1.6km/h 91% 0.00in /  0mm 0 W/m2
01:24 75.2 °F /  24 °C 72.4 °F /  22.4 °C 30.00in /  1015.8hPa Calm   1mph /  1.6km/h 91% 0.00in /  0mm 0 W/m2
01:29 75.1 °F /  23.9 °C 72.3 °F /  22.4 °C 30.00in /  1015.8hPa Calm   1mph /  1.6km/h 91% 0.00in /  0mm 0 W/m2
01:34 75.1 °F /  23.9 °C 72.4 °F /  22.4 °C 30.00in /  1015.8hPa Calm   1mph /  1.6km/h 91.2% 0.00in /  0mm 0 W/m2
01:39 75 °F /  23.9 °C 72.5 °F /  22.5 °C 30.00in /  1015.8hPa Calm     92% 0.00in /  0mm 0 W/m2
01:44 74.9 °F /  23.8 °C 72.5 °F /  22.5 °C 29.99in /  1015.5hPa Calm   1mph /  1.6km/h 92% 0.00in /  0mm 0 W/m2
01:49 74.9 °F /  23.8 °C 72.4 °F /  22.4 °C 29.99in /  1015.5hPa Calm   1mph /  1.6km/h 92% 0.00in /  0mm 0 W/m2
01:54 74.8 °F /  23.8 °C 72.3 °F /  22.4 °C 29.99in /  1015.5hPa Calm   1mph /  1.6km/h 92% 0.00in /  0mm 0 W/m2
01:59 74.7 °F /  23.7 °C 72.2 °F /  22.3 °C 29.99in /  1015.5hPa Calm   1mph /  1.6km/h 92% 0.00in /  0mm 0 W/m2
02:04 74.6 °F /  23.7 °C 72.1 °F /  22.3 °C 29.99in /  1015.5hPa Calm   1mph /  1.6km/h 92% 0.00in /  0mm 0 W/m2
02:09 74.5 °F /  23.6 °C 72.1 °F /  22.3 °C 29.99in /  1015.5hPa Calm     92% 0.00in /  0mm 0 W/m2
02:14 74.4 °F /  23.6 °C 72 °F /  22.2 °C 29.99in /  1015.5hPa Calm     92% 0.00in /  0mm 0 W/m2
02:19 74.4 °F /  23.6 °C 71.9 °F /  22.2 °C 29.99in /  1015.5hPa Calm     92% 0.00in /  0mm 0 W/m2
02:24 74.3 °F /  23.5 °C 71.8 °F /  22.1 °C 29.99in /  1015.5hPa Calm     92% 0.00in /  0mm 0 W/m2
02:29 74.2 °F /  23.4 °C 71.7 °F /  22.1 °C 29.99in /  1015.5hPa Calm     92% 0.00in /  0mm 0 W/m2
02:34 74.1 °F /  23.4 °C 71.6 °F /  22 °C 29.99in /  1015.5hPa Calm     92% 0.00in /  0mm 0 W/m2
02:39 74 °F /  23.3 °C 71.5 °F /  21.9 °C 30.00in /  1015.8hPa Calm     92% 0.00in /  0mm 0 W/m2
02:44 73.9 °F /  23.3 °C 71.4 °F /  21.9 °C 30.00in /  1015.8hPa Calm     92% 0.00in /  0mm 0 W/m2
02:49 73.8 °F /  23.2 °C 71.4 °F /  21.9 °C 29.99in /  1015.5hPa Calm     92% 0.00in /  0mm 0 W/m2
02:54 73.8 °F /  23.2 °C 71.3 °F /  21.8 °C 29.99in /  1015.5hPa Calm     92% 0.00in /  0mm 0 W/m2
02:59 73.7 °F /  23.2 °C 71.2 °F /  21.8 °C 29.99in /  1015.5hPa Calm     92% 0.00in /  0mm 0 W/m2
03:04 73.6 °F /  23.1 °C 71.2 °F /  21.8 °C 29.99in /  1015.5hPa Calm     92% 0.00in /  0mm 0 W/m2
03:09 73.5 °F /  23.1 °C 71.4 °F /  21.9 °C 29.99in /  1015.5hPa Calm     92.9% 0.00in /  0mm 0 W/m2
03:14 73.5 °F /  23.1 °C 71.4 °F /  21.9 °C 29.99in /  1015.5hPa Calm     93% 0.00in /  0mm 0 W/m2
03:19 73.5 °F /  23.1 °C 71.4 °F /  21.9 °C 29.99in /  1015.5hPa Calm     93% 0.00in /  0mm 0 W/m2
03:24 73.5 °F /  23.1 °C 71.3 °F /  21.8 °C 29.99in /  1015.5hPa Calm     93% 0.00in /  0mm 0 W/m2
03:29 73.4 °F /  23 °C 71 °F /  21.7 °C 30.00in /  1015.8hPa Calm   1mph /  1.6km/h 92.2% 0.00in /  0mm 0 W/m2
03:34 73.4 °F /  23 °C 70.9 °F /  21.6 °C 29.99in /  1015.5hPa Calm   1mph /  1.6km/h 92% 0.00in /  0mm 0 W/m2
03:39 73.3 °F /  22.9 °C 70.8 °F /  21.6 °C 29.99in /  1015.5hPa Calm     92% 0.00in /  0mm 0 W/m2
03:44 73.2 °F /  22.9 °C 70.8 °F /  21.6 °C 29.99in /  1015.5hPa Calm     92% 0.00in /  0mm 0 W/m2
03:49 73.2 °F /  22.9 °C 70.7 °F /  21.5 °C 29.99in /  1015.5hPa Calm     92% 0.00in /  0mm 0 W/m2
03:54 73.1 °F /  22.8 °C 70.6 °F /  21.4 °C 29.99in /  1015.5hPa Calm     92% 0.00in /  0mm 0 W/m2
03:59 73.1 °F /  22.8 °C 70.7 °F /  21.5 °C 29.99in /  1015.5hPa Calm     92.2% 0.00in /  0mm 0 W/m2
04:09 73.1 °F /  22.8 °C 71 °F /  21.7 °C 29.99in /  1015.5hPa Calm     93% 0.00in /  0mm 0 W/m2
04:14 73.1 °F /  22.8 °C 70.9 °F /  21.6 °C 29.99in /  1015.5hPa Calm     93% 0.00in /  0mm 0 W/m2
04:19 73 °F /  22.8 °C 70.9 °F /  21.6 °C 29.99in /  1015.5hPa Calm   2mph /  3.2km/h 93% 0.00in /  0mm 0 W/m2
04:24 73 °F /  22.8 °C 70.9 °F /  21.6 °C 29.99in /  1015.5hPa Calm   2mph /  3.2km/h 93% 0.00in /  0mm 0 W/m2
04:29 73 °F /  22.8 °C 70.9 °F /  21.6 °C 29.99in /  1015.5hPa Calm   2mph /  3.2km/h 93% 0.00in /  0mm 0 W/m2
04:34 73 °F /  22.8 °C 70.9 °F /  21.6 °C 29.99in /  1015.5hPa Calm   2mph /  3.2km/h 93% 0.00in /  0mm 0 W/m2
04:39 73 °F /  22.8 °C 70.9 °F /  21.6 °C 29.99in /  1015.5hPa Calm   2mph /  3.2km/h 93% 0.00in /  0mm 0 W/m2
04:44 73 °F /  22.8 °C 70.9 °F /  21.6 °C 29.98in /  1015.1hPa Calm   2mph /  3.2km/h 93% 0.00in /  0mm 0 W/m2
04:49 73.1 °F /  22.8 °C 70.9 °F /  21.6 °C 29.98in /  1015.1hPa Calm   2mph /  3.2km/h 93% 0.00in /  0mm 0 W/m2
04:54 73.1 °F /  22.8 °C 71 °F /  21.7 °C 29.98in /  1015.1hPa Calm   2mph /  3.2km/h 93% 0.00in /  0mm 0 W/m2
04:59 73.1 °F /  22.8 °C 71 °F /  21.7 °C 29.98in /  1015.1hPa Calm   2mph /  3.2km/h 93% 0.00in /  0mm 0 W/m2
05:04 73.1 °F /  22.8 °C 71 °F /  21.7 °C 29.98in /  1015.1hPa Calm   2mph /  3.2km/h 93% 0.00in /  0mm 0 W/m2
05:09 73.1 °F /  22.8 °C 71 °F /  21.7 °C 29.98in /  1015.1hPa Calm   1mph /  1.6km/h 93% 0.00in /  0mm 0 W/m2
05:14 73.2 °F /  22.9 °C 71 °F /  21.7 °C 29.98in /  1015.1hPa Calm   1mph /  1.6km/h 93% 0.00in /  0mm 0 W/m2
05:19 73.2 °F /  22.9 °C 71.1 °F /  21.7 °C 29.98in /  1015.1hPa Calm   1mph /  1.6km/h 93% 0.00in /  0mm 0 W/m2
05:24 73.2 °F /  22.9 °C 71 °F /  21.7 °C 29.98in /  1015.1hPa Calm   1mph /  1.6km/h 93% 0.00in /  0mm 0 W/m2
05:29 73.2 °F /  22.9 °C 71 °F /  21.7 °C 29.98in /  1015.1hPa Calm   1mph /  1.6km/h 93% 0.00in /  0mm 0 W/m2
05:34 73.2 °F /  22.9 °C 71.1 °F /  21.7 °C 29.98in /  1015.1hPa Calm   1mph /  1.6km/h 93% 0.00in /  0mm 0 W/m2
05:39 73.2 °F /  22.9 °C 71.1 °F /  21.7 °C 29.98in /  1015.1hPa Calm     93% 0.00in /  0mm 0 W/m2
05:44 73.2 °F /  22.9 °C 71.1 °F /  21.7 °C 29.98in /  1015.1hPa Calm     93% 0.00in /  0mm 0 W/m2
05:49 73.2 °F /  22.9 °C 71 °F /  21.7 °C 29.98in /  1015.1hPa Calm     93% 0.00in /  0mm 0 W/m2
05:54 73.1 °F /  22.8 °C 71 °F /  21.7 °C 29.98in /  1015.1hPa Calm     93% 0.00in /  0mm 0 W/m2
05:59 73.1 °F /  22.8 °C 71 °F /  21.7 °C 29.98in /  1015.1hPa Calm     93% 0.00in /  0mm 0 W/m2
06:04 73.1 °F /  22.8 °C 70.9 °F /  21.6 °C 29.98in /  1015.1hPa Calm     93% 0.00in /  0mm 5 W/m2
06:09 73 °F /  22.8 °C 70.9 °F /  21.6 °C 29.99in /  1015.5hPa Calm     93% 0.00in /  0mm 9 W/m2
06:14 73 °F /  22.8 °C 71.2 °F /  21.8 °C 29.99in /  1015.5hPa Calm     94% 0.00in /  0mm 16 W/m2
06:19 73 °F /  22.8 °C 71.2 °F /  21.8 °C 29.99in /  1015.5hPa Calm     94% 0.00in /  0mm 18 W/m2
06:24 73.1 °F /  22.8 °C 71.3 °F /  21.8 °C 29.99in /  1015.5hPa Calm     94% 0.00in /  0mm 18 W/m2
06:29 73.1 °F /  22.8 °C 71.3 °F /  21.8 °C 29.98in /  1015.1hPa Calm     94% 0.00in /  0mm 18 W/m2
06:34 73.2 °F /  22.9 °C 71.4 °F /  21.9 °C 29.98in /  1015.1hPa Calm     94% 0.00in /  0mm 23 W/m2
06:39 73.2 °F /  22.9 °C 71.4 °F /  21.9 °C 29.99in /  1015.5hPa Calm     94% 0.00in /  0mm 26 W/m2
06:44 73.3 °F /  22.9 °C 71.5 °F /  21.9 °C 29.99in /  1015.5hPa Calm     94% 0.00in /  0mm 33 W/m2
06:49 73.3 °F /  22.9 °C 71.5 °F /  21.9 °C 29.99in /  1015.5hPa Calm     94% 0.00in /  0mm 47 W/m2
06:54 73.4 °F /  23 °C 71.6 °F /  22 °C 29.99in /  1015.5hPa SSW 0.1mph /  0.2km/h 2mph /  3.2km/h 94% 0.00in /  0mm 58 W/m2
06:59 73.5 °F /  23.1 °C 71.7 °F /  22.1 °C 29.99in /  1015.5hPa Calm   2mph /  3.2km/h 94% 0.00in /  0mm 76 W/m2
07:04 73.6 °F /  23.1 °C 71.8 °F /  22.1 °C 29.99in /  1015.5hPa Calm   2mph /  3.2km/h 94% 0.00in /  0mm 76 W/m2
07:09 73.8 °F /  23.2 °C 71.9 °F /  22.2 °C 29.99in /  1015.5hPa Calm     94% 0.00in /  0mm 65 W/m2
07:14 73.9 °F /  23.3 °C 71.8 °F /  22.1 °C 29.99in /  1015.5hPa Calm   1mph /  1.6km/h 93.1% 0.00in /  0mm 62 W/m2
07:19 74 °F /  23.3 °C 71.8 °F /  22.1 °C 29.99in /  1015.5hPa SSW 0.1mph /  0.2km/h 2mph /  3.2km/h 93% 0.00in /  0mm 54 W/m2
07:24 74.1 °F /  23.4 °C 71.9 °F /  22.2 °C 29.99in /  1015.5hPa SSW 0.1mph /  0.2km/h 2mph /  3.2km/h 93% 0.00in /  0mm 54 W/m2
07:29 74.2 °F /  23.4 °C 72 °F /  22.2 °C 29.98in /  1015.1hPa Calm   2mph /  3.2km/h 93% 0.00in /  0mm 54 W/m2
07:34 74.2 °F /  23.4 °C 71.8 °F /  22.1 °C 29.98in /  1015.1hPa Calm   2mph /  3.2km/h 92.3% 0.00in /  0mm 49 W/m2
07:39 74.3 °F /  23.5 °C 71.8 °F /  22.1 °C 29.98in /  1015.1hPa Calm     92% 0.00in /  0mm 53 W/m2
07:44 74.4 °F /  23.6 °C 71.9 °F /  22.2 °C 29.98in /  1015.1hPa Calm   1mph /  1.6km/h 92% 0.00in /  0mm 58 W/m2
07:49 74.5 °F /  23.6 °C 72.1 °F /  22.3 °C 29.98in /  1015.1hPa Calm   1mph /  1.6km/h 92% 0.00in /  0mm 72 W/m2
07:54 74.6 °F /  23.7 °C 71.8 °F /  22.1 °C 29.98in /  1015.1hPa Calm   1mph /  1.6km/h 91% 0.00in /  0mm 102 W/m2
07:59 74.8 °F /  23.8 °C 72 °F /  22.2 °C 29.98in /  1015.1hPa SSW 0.1mph /  0.2km/h 2mph /  3.2km/h 91% 0.00in /  0mm 109 W/m2
08:00 74.9 °F /  23.8 °C 72.1 °F /  22.3 °C 29.98in /  1015.1hPa Calm   2mph /  3.2km/h 91% 0.00in /  0mm 88 W/m2
08:09 75.2 °F /  24 °C 72.2 °F /  22.3 °C 29.98in /  1015.1hPa Calm     90.5% 0.00in /  0mm 130 W/m2
08:14 75.4 °F /  24.1 °C 72.2 °F /  22.3 °C 29.98in /  1015.1hPa Calm     90% 0.00in /  0mm 76 W/m2
08:19 75.5 °F /  24.2 °C 72.3 °F /  22.4 °C 29.97in /  1014.8hPa Calm     89.6% 0.00in /  0mm 84 W/m2
08:24 75.7 °F /  24.3 °C 72.3 °F /  22.4 °C 29.97in /  1014.8hPa Calm     89.1% 0.00in /  0mm 325 W/m2
08:29 76.3 °F /  24.6 °C 72.8 °F /  22.7 °C 29.97in /  1014.8hPa Calm     89% 0.00in /  0mm 350 W/m2
08:34 77.1 °F /  25.1 °C 73.3 °F /  22.9 °C 29.97in /  1014.8hPa Calm     88.1% 0.00in /  0mm 373 W/m2
08:39 77.9 °F /  25.5 °C 73.3 °F /  22.9 °C 29.97in /  1014.8hPa Calm   1mph /  1.6km/h 85.7% 0.00in /  0mm 404 W/m2
08:44 78.5 °F /  25.8 °C 73.3 °F /  22.9 °C 29.97in /  1014.8hPa Calm   1mph /  1.6km/h 84.2% 0.00in /  0mm 420 W/m2
08:49 79.1 °F /  26.2 °C 73.6 °F /  23.1 °C 29.97in /  1014.8hPa Calm   1mph /  1.6km/h 83.2% 0.00in /  0mm 441 W/m2
08:54 79.9 °F /  26.6 °C 73.9 °F /  23.3 °C 29.98in /  1015.1hPa SSW 0.1mph /  0.2km/h 3mph /  4.8km/h 82% 0.00in /  0mm 459 W/m2
08:59 80.6 °F /  27 °C 74.4 °F /  23.6 °C 29.98in /  1015.1hPa Calm   3mph /  4.8km/h 81.6% 0.00in /  0mm 464 W/m2
09:04 81.5 °F /  27.5 °C 75.1 °F /  23.9 °C 29.98in /  1015.1hPa Calm   3mph /  4.8km/h 80.8% 0.00in /  0mm 480 W/m2
09:09 82.4 °F /  28 °C 75 °F /  23.9 °C 29.98in /  1015.1hPa WSW 0.9mph /  1.4km/h 10mph /  16.1km/h 78.3% 0.00in /  0mm 517 W/m2
09:14 83.1 °F /  28.4 °C 75.2 °F /  24 °C 29.98in /  1015.1hPa Calm   10mph /  16.1km/h 77.2% 0.00in /  0mm 561 W/m2
09:19 83.6 °F /  28.7 °C 75.3 °F /  24.1 °C 29.98in /  1015.1hPa West 0.8mph /  1.3km/h 10mph /  16.1km/h 76.1% 0.00in /  0mm 622 W/m2
09:24 84 °F /  28.9 °C 75 °F /  23.9 °C 29.98in /  1015.1hPa WSW 0.9mph /  1.4km/h 10mph /  16.1km/h 74.6% 0.00in /  0mm 622 W/m2
09:29 83.9 °F /  28.8 °C 74.4 °F /  23.6 °C 29.98in /  1015.1hPa WSW 0.4mph /  0.6km/h 10mph /  16.1km/h 73.4% 0.00in /  0mm 167 W/m2
09:34 83.6 °F /  28.7 °C 75 °F /  23.9 °C 29.98in /  1015.1hPa SW 0.6mph /  1km/h 10mph /  16.1km/h 75.2% 0.00in /  0mm 596 W/m2
09:39 83.6 °F /  28.7 °C 74.9 °F /  23.8 °C 29.98in /  1015.1hPa SW 0.3mph /  0.5km/h 6mph /  9.7km/h 75% 0.00in /  0mm 538 W/m2
09:44 83.9 °F /  28.8 °C 75.1 °F /  23.9 °C 29.98in /  1015.1hPa SW 0.1mph /  0.2km/h 6mph /  9.7km/h 75% 0.00in /  0mm 612 W/m2
09:49 84.3 °F /  29.1 °C 75.4 °F /  24.1 °C 29.98in /  1015.1hPa SW 0.4mph /  0.6km/h 6mph /  9.7km/h 74.7% 0.00in /  0mm 621 W/m2
09:54 84.9 °F /  29.4 °C 75.2 °F /  24 °C 29.98in /  1015.1hPa SW 0.8mph /  1.3km/h 6mph /  9.7km/h 72.8% 0.00in /  0mm 650 W/m2
09:59 85.2 °F /  29.6 °C 75.3 °F /  24.1 °C 29.98in /  1015.1hPa SW 0.7mph /  1.1km/h 6mph /  9.7km/h 72.4% 0.00in /  0mm 661 W/m2
10:04 85.4 °F /  29.7 °C 75.3 °F /  24.1 °C 29.99in /  1015.5hPa SW 0.5mph /  0.8km/h 6mph /  9.7km/h 71.7% 0.00in /  0mm 635 W/m2
10:09 85.7 °F /  29.8 °C 75.2 °F /  24 °C 29.99in /  1015.5hPa SW 0.4mph /  0.6km/h 4mph /  6.4km/h 71.1% 0.00in /  0mm 650 W/m2
10:14 86 °F /  30 °C 75.9 °F /  24.4 °C 29.99in /  1015.5hPa SW 0.1mph /  0.2km/h 4mph /  6.4km/h 71.9% 0.00in /  0mm 628 W/m2
10:19 86.6 °F /  30.3 °C 76 °F /  24.4 °C 29.98in /  1015.1hPa Calm   4mph /  6.4km/h 70.9% 0.00in /  0mm 679 W/m2
10:24 87 °F /  30.6 °C 76.2 °F /  24.6 °C 29.98in /  1015.1hPa WSW 0.7mph /  1.1km/h 6mph /  9.7km/h 70.3% 0.00in /  0mm 691 W/m2
10:29 87.3 °F /  30.7 °C 76.1 °F /  24.5 °C 29.98in /  1015.1hPa West 0.5mph /  0.8km/h 6mph /  9.7km/h 69.5% 0.00in /  0mm 710 W/m2
10:34 87.6 °F /  30.9 °C 75.8 °F /  24.3 °C 29.98in /  1015.1hPa SW 0.7mph /  1.1km/h 6mph /  9.7km/h 68.2% 0.00in /  0mm 712 W/m2
10:39 88 °F /  31.1 °C 76.3 °F /  24.6 °C 29.98in /  1015.1hPa WSW 0.4mph /  0.6km/h 5mph /  8km/h 68.6% 0.00in /  0mm 733 W/m2
10:44 88.5 °F /  31.4 °C 76.6 °F /  24.8 °C 29.98in /  1015.1hPa WSW 0.6mph /  1km/h 5mph /  8km/h 68.1% 0.00in /  0mm 742 W/m2
10:49 88.7 °F /  31.5 °C 75.8 °F /  24.3 °C 29.98in /  1015.1hPa SW 1mph /  1.6km/h 5mph /  8km/h 65.8% 0.00in /  0mm 784 W/m2
10:54 88.8 °F /  31.6 °C 76 °F /  24.4 °C 29.97in /  1014.8hPa SW 0.7mph /  1.1km/h 5mph /  8km/h 66% 0.00in /  0mm 823 W/m2
10:59 89.1 °F /  31.7 °C 76 °F /  24.4 °C 29.97in /  1014.8hPa SW 1.4mph /  2.3km/h 7mph /  11.3km/h 65.5% 0.00in /  0mm 823 W/m2
11:04 89.4 °F /  31.9 °C 76.1 °F /  24.5 °C 29.97in /  1014.8hPa WSW 1.2mph /  1.9km/h 7mph /  11.3km/h 65.2% 0.00in /  0mm 759 W/m2
11:09 89.7 °F /  32.1 °C 76.5 °F /  24.7 °C 29.97in /  1014.8hPa WSW 1mph /  1.6km/h 6mph /  9.7km/h 65.3% 0.00in /  0mm 770 W/m2
11:14 90 °F /  32.2 °C 76.4 °F /  24.7 °C 29.97in /  1014.8hPa SW 1.9mph /  3.1km/h 7mph /  11.3km/h 64.4% 0.00in /  0mm 780 W/m2
11:19 90.2 °F /  32.3 °C 76.3 °F /  24.6 °C 29.97in /  1014.8hPa SW 1.8mph /  2.9km/h 7mph /  11.3km/h 64% 0.00in /  0mm 796 W/m2
11:24 90.2 °F /  32.3 °C 76.7 °F /  24.8 °C 29.97in /  1014.8hPa SW 1.6mph /  2.6km/h 7mph /  11.3km/h 64.6% 0.00in /  0mm 786 W/m2
11:29 90.1 °F /  32.3 °C 76.3 °F /  24.6 °C 29.96in /  1014.4hPa SW 0.7mph /  1.1km/h 7mph /  11.3km/h 64% 0.00in /  0mm 782 W/m2
11:34 90.1 °F /  32.3 °C 76 °F /  24.4 °C 29.96in /  1014.4hPa SW 0.2mph /  0.3km/h 7mph /  11.3km/h 63.4% 0.00in /  0mm 788 W/m2
11:39 90.1 °F /  32.3 °C 76.1 °F /  24.5 °C 29.96in /  1014.4hPa SW 1.1mph /  1.8km/h 5mph /  8km/h 63.7% 0.00in /  0mm 789 W/m2
11:44 90.1 °F /  32.3 °C 76.2 °F /  24.6 °C 29.96in /  1014.4hPa SW 0.6mph /  1km/h 5mph /  8km/h 63.7% 0.00in /  0mm 793 W/m2
11:49 90.4 °F /  32.4 °C 77.1 °F /  25.1 °C 29.96in /  1014.4hPa SW 1.4mph /  2.3km/h 5mph /  8km/h 65.1% 0.00in /  0mm 812 W/m2
11:54 90.7 °F /  32.6 °C 76.5 °F /  24.7 °C 29.96in /  1014.4hPa SW 1mph /  1.6km/h 5mph /  8km/h 63.1% 0.00in /  0mm 826 W/m2
11:59 90.8 °F /  32.7 °C 76.4 °F /  24.7 °C 29.96in /  1014.4hPa SW 0.7mph /  1.1km/h 6mph /  9.7km/h 62.8% 0.00in /  0mm 821 W/m2
12:00 90.8 °F /  32.7 °C 76.5 °F /  24.7 °C 29.95in /  1014.1hPa SW 4mph /  6.4km/h 6mph /  9.7km/h 63% 0.00in /  0mm 814 W/m2
12:09 90.8 °F /  32.7 °C 76.7 °F /  24.8 °C 29.95in /  1014.1hPa SW 1.2mph /  1.9km/h 6mph /  9.7km/h 63.4% 0.00in /  0mm 821 W/m2
12:14 91 °F /  32.8 °C 76.7 °F /  24.8 °C 29.95in /  1014.1hPa SW 1.3mph /  2.1km/h 6mph /  9.7km/h 63.1% 0.00in /  0mm 817 W/m2
12:19 90.9 °F /  32.7 °C 76.2 °F /  24.6 °C 29.95in /  1014.1hPa SW 1.2mph /  1.9km/h 6mph /  9.7km/h 62.3% 0.00in /  0mm 821 W/m2
12:24 90.6 °F /  32.6 °C 76.2 °F /  24.6 °C 29.95in /  1014.1hPa SW 1.2mph /  1.9km/h 6mph /  9.7km/h 62.9% 0.00in /  0mm 826 W/m2
12:29 90.5 °F /  32.5 °C 76.6 °F /  24.8 °C 29.95in /  1014.1hPa SSW 1.1mph /  1.8km/h 6mph /  9.7km/h 63.9% 0.00in /  0mm 831 W/m2
12:34 90.6 °F /  32.6 °C 76.5 °F /  24.7 °C 29.95in /  1014.1hPa WSW 0.4mph /  0.6km/h 6mph /  9.7km/h 63.5% 0.00in /  0mm 837 W/m2
12:39 90.5 °F /  32.5 °C 76.5 °F /  24.7 °C 29.95in /  1014.1hPa West 1.3mph /  2.1km/h 5mph /  8km/h 63.6% 0.00in /  0mm 835 W/m2
12:44 90.4 °F /  32.4 °C 76.3 °F /  24.6 °C 29.95in /  1014.1hPa SW 0.6mph /  1km/h 6mph /  9.7km/h 63.5% 0.00in /  0mm 835 W/m2
12:49 90.3 °F /  32.4 °C 76.6 °F /  24.8 °C 29.95in /  1014.1hPa WSW 0.3mph /  0.5km/h 6mph /  9.7km/h 64.3% 0.00in /  0mm 840 W/m2
12:54 90.4 °F /  32.4 °C 76.6 °F /  24.8 °C 29.95in /  1014.1hPa SW 0.8mph /  1.3km/h 6mph /  9.7km/h 64.1% 0.00in /  0mm 842 W/m2
12:59 90.4 °F /  32.4 °C 76.7 °F /  24.8 °C 29.95in /  1014.1hPa South 1mph /  1.6km/h 6mph /  9.7km/h 64.3% 0.00in /  0mm 847 W/m2
13:04 90.3 °F /  32.4 °C 76.5 °F /  24.7 °C 29.94in /  1013.8hPa South 0.6mph /  1km/h 6mph /  9.7km/h 64% 0.00in /  0mm 844 W/m2
13:09 90.4 °F /  32.4 °C 76.7 °F /  24.8 °C 29.94in /  1013.8hPa South 0.4mph /  0.6km/h 3mph /  4.8km/h 64.3% 0.00in /  0mm 851 W/m2
13:14 90.5 °F /  32.5 °C 77.2 °F /  25.1 °C 29.94in /  1013.8hPa SSW 1.5mph /  2.4km/h 6mph /  9.7km/h 65% 0.00in /  0mm 846 W/m2
13:24 91 °F /  32.8 °C 77 °F /  25 °C 29.93in /  1013.4hPa SW 0.9mph /  1.4km/h 7mph /  11.3km/h 63.7% 0.00in /  0mm 930 W/m2
13:29 91.2 °F /  32.9 °C 77.3 °F /  25.2 °C 29.93in /  1013.4hPa SW 1.6mph /  2.6km/h 9mph /  14.5km/h 64% 0.00in /  0mm 260 W/m2
13:34 91.3 °F /  32.9 °C 77.1 °F /  25.1 °C 29.93in /  1013.4hPa SW 0.6mph /  1km/h 9mph /  14.5km/h 63.3% 0.00in /  0mm 490 W/m2
13:39 91.4 °F /  33 °C 77.6 °F /  25.3 °C 29.93in /  1013.4hPa SW 1.2mph /  1.9km/h 5mph /  8km/h 64.2% 0.00in /  0mm 214 W/m2
13:44 91.2 °F /  32.9 °C 77.3 °F /  25.2 °C 29.93in /  1013.4hPa WSW 0.7mph /  1.1km/h 5mph /  8km/h 63.9% 0.00in /  0mm 243 W/m2
14:04 91 °F /  32.8 °C 77.7 °F /  25.4 °C 29.93in /  1013.4hPa SSW 0.1mph /  0.2km/h 7mph /  11.3km/h 65.2% 0.00in /  0mm 800 W/m2
14:09 91.2 °F /  32.9 °C 78 °F /  25.6 °C 29.93in /  1013.4hPa SSW 1.1mph /  1.8km/h 4mph /  6.4km/h 65.3% 0.00in /  0mm 823 W/m2
17:30 89.2 °F /  31.8 °C 77.3 °F /  25.2 °C 29.90in /  1012.4hPa WSW 1mph /  1.6km/h 7mph /  11.3km/h 68% 0.00in /  0mm 65 W/m2
18:00 87.4 °F /  30.8 °C 77.7 °F /  25.4 °C 29.91in /  1012.8hPa Calm   3mph /  4.8km/h 73% 0.00in /  0mm 30 W/m2
18:30 86.2 °F /  30.1 °C 77.3 °F /  25.2 °C 29.89in /  1012.1hPa Calm   4mph /  6.4km/h 75% 0.00in /  0mm 23 W/m2
19:00 85.7 °F /  29.8 °C 77.7 °F /  25.4 °C 29.89in /  1012.1hPa Calm   3mph /  4.8km/h 77% 0.00in /  0mm 32 W/m2
19:30 84.7 °F /  29.3 °C 77.1 °F /  25.1 °C 29.90in /  1012.4hPa Calm   4mph /  6.4km/h 78% 0.00in /  0mm 35 W/m2
20:04 83.6 °F /  28.7 °C 76.8 °F /  24.9 °C 29.90in /  1012.4hPa Calm     80% 0.00in /  0mm 0 W/m2
20:09 83.5 °F /  28.6 °C 76.7 °F /  24.8 °C 29.91in /  1012.8hPa Calm     80% 0.00in /  0mm 0 W/m2
20:14 83.4 °F /  28.6 °C 76.6 °F /  24.8 °C 29.91in /  1012.8hPa Calm     80% 0.00in /  0mm 0 W/m2
20:19 83.2 °F /  28.4 °C 76.6 °F /  24.8 °C 29.91in /  1012.8hPa Calm   1mph /  1.6km/h 80.5% 0.00in /  0mm 0 W/m2
20:24 83.1 °F /  28.4 °C 76.6 °F /  24.8 °C 29.92in /  1013.1hPa Calm   2mph /  3.2km/h 81% 0.00in /  0mm 0 W/m2
20:29 83 °F /  28.3 °C 76.5 °F /  24.7 °C 29.92in /  1013.1hPa Calm   2mph /  3.2km/h 81% 0.00in /  0mm 0 W/m2
20:34 82.9 °F /  28.3 °C 76.5 °F /  24.7 °C 29.92in /  1013.1hPa Calm   2mph /  3.2km/h 81.1% 0.00in /  0mm 0 W/m2
20:39 82.7 °F /  28.2 °C 76.7 °F /  24.8 °C 29.92in /  1013.1hPa Calm   1mph /  1.6km/h 82% 0.00in /  0mm 0 W/m2
20:44 82.6 °F /  28.1 °C 76.6 °F /  24.8 °C 29.92in /  1013.1hPa Calm   1mph /  1.6km/h 82% 0.00in /  0mm 0 W/m2
20:49 82.5 °F /  28.1 °C 76.5 °F /  24.7 °C 29.92in /  1013.1hPa Calm   1mph /  1.6km/h 82.2% 0.00in /  0mm 0 W/m2
20:54 82.4 °F /  28 °C 76.6 °F /  24.8 °C 29.92in /  1013.1hPa Calm   1mph /  1.6km/h 82.9% 0.00in /  0mm 0 W/m2
20:59 82.3 °F /  27.9 °C 76.6 °F /  24.8 °C 29.93in /  1013.4hPa WSW 0.1mph /  0.2km/h 3mph /  4.8km/h 83% 0.00in /  0mm 0 W/m2
21:04 82.1 °F /  27.8 °C 76.5 °F /  24.7 °C 29.93in /  1013.4hPa WSW 0.1mph /  0.2km/h 3mph /  4.8km/h 83% 0.00in /  0mm 0 W/m2
21:09 82 °F /  27.8 °C 76.4 °F /  24.7 °C 29.93in /  1013.4hPa Calm   2mph /  3.2km/h 83% 0.00in /  0mm 0 W/m2
21:14 81.9 °F /  27.7 °C 76.6 °F /  24.8 °C 29.93in /  1013.4hPa Calm   2mph /  3.2km/h 84% 0.00in /  0mm 0 W/m2
21:19 81.8 °F /  27.7 °C 76.5 °F /  24.7 °C 29.93in /  1013.4hPa Calm   2mph /  3.2km/h 84% 0.00in /  0mm 0 W/m2
21:24 81.7 °F /  27.6 °C 76.4 °F /  24.7 °C 29.93in /  1013.4hPa WSW 0.1mph /  0.2km/h 2mph /  3.2km/h 84% 0.00in /  0mm 0 W/m2
21:29 81.6 °F /  27.6 °C 76.3 °F /  24.6 °C 29.93in /  1013.4hPa Calm   2mph /  3.2km/h 84% 0.00in /  0mm 0 W/m2
21:34 81.5 °F /  27.5 °C 76.3 °F /  24.6 °C 29.93in /  1013.4hPa Calm   2mph /  3.2km/h 84.3% 0.00in /  0mm 0 W/m2
21:39 81.4 °F /  27.4 °C 76.4 °F /  24.7 °C 29.93in /  1013.4hPa Calm     85% 0.00in /  0mm 0 W/m2
21:44 81.3 °F /  27.4 °C 76.4 °F /  24.7 °C 29.93in /  1013.4hPa Calm     85% 0.00in /  0mm 0 W/m2
21:49 81.2 °F /  27.3 °C 76.3 °F /  24.6 °C 29.93in /  1013.4hPa Calm   1mph /  1.6km/h 85% 0.00in /  0mm 0 W/m2
21:54 81.1 °F /  27.3 °C 76.2 °F /  24.6 °C 29.93in /  1013.4hPa Calm   1mph /  1.6km/h 85% 0.00in /  0mm 0 W/m2
21:59 81.1 °F /  27.3 °C 76.1 °F /  24.5 °C 29.93in /  1013.4hPa Calm   1mph /  1.6km/h 85% 0.00in /  0mm 0 W/m2
22:04 81 °F /  27.2 °C 76.1 °F /  24.5 °C 29.93in /  1013.4hPa Calm   1mph /  1.6km/h 85% 0.00in /  0mm 0 W/m2
22:09 80.9 °F /  27.2 °C 76.1 °F /  24.5 °C 29.93in /  1013.4hPa Calm     85.3% 0.00in /  0mm 0 W/m2
22:14 80.8 °F /  27.1 °C 76.2 °F /  24.6 °C 29.94in /  1013.8hPa Calm     86% 0.00in /  0mm 0 W/m2
22:19 80.7 °F /  27.1 °C 76.1 °F /  24.5 °C 29.94in /  1013.8hPa Calm     86% 0.00in /  0mm 0 W/m2
22:24 80.6 °F /  27 °C 76.1 °F /  24.5 °C 29.94in /  1013.8hPa Calm     86% 0.00in /  0mm 0 W/m2
22:29 80.5 °F /  26.9 °C 76 °F /  24.4 °C 29.94in /  1013.8hPa Calm     86% 0.00in /  0mm 0 W/m2
22:34 80.4 °F /  26.9 °C 75.9 °F /  24.4 °C 29.94in /  1013.8hPa Calm     86% 0.00in /  0mm 0 W/m2
22:39 80.4 °F /  26.9 °C 75.8 °F /  24.3 °C 29.93in /  1013.4hPa Calm     86% 0.00in /  0mm 0 W/m2
22:44 80.3 °F /  26.8 °C 75.7 °F /  24.3 °C 29.93in /  1013.4hPa Calm     86% 0.00in /  0mm 0 W/m2
22:49 80.2 °F /  26.8 °C 75.9 °F /  24.4 °C 29.93in /  1013.4hPa Calm     86.6% 0.00in /  0mm 0 W/m2
22:54 80.1 °F /  26.7 °C 75.9 °F /  24.4 °C 29.93in /  1013.4hPa Calm     87% 0.00in /  0mm 0 W/m2
22:59 80.1 °F /  26.7 °C 75.9 °F /  24.4 °C 29.93in /  1013.4hPa Calm     87% 0.00in /  0mm 0 W/m2
23:04 80 °F /  26.7 °C 75.8 °F /  24.3 °C 29.92in /  1013.1hPa Calm     87% 0.00in /  0mm 0 W/m2
23:09 80 °F /  26.7 °C 75.7 °F /  24.3 °C 29.92in /  1013.1hPa Calm     87% 0.00in /  0mm 0 W/m2
23:14 79.9 °F /  26.6 °C 75.7 °F /  24.3 °C 29.92in /  1013.1hPa Calm     87% 0.00in /  0mm 0 W/m2
23:19 79.8 °F /  26.6 °C 75.6 °F /  24.2 °C 29.92in /  1013.1hPa Calm     87% 0.00in /  0mm 0 W/m2
23:24 79.8 °F /  26.6 °C 75.6 °F /  24.2 °C 29.92in /  1013.1hPa Calm     87% 0.00in /  0mm 0 W/m2
23:29 79.7 °F /  26.5 °C 75.5 °F /  24.2 °C 29.92in /  1013.1hPa Calm     87% 0.00in /  0mm 0 W/m2
23:34 79.6 °F /  26.4 °C 75.4 °F /  24.1 °C 29.92in /  1013.1hPa Calm     87% 0.00in /  0mm 0 W/m2
23:39 79.5 °F /  26.4 °C 75.4 °F /  24.1 °C 29.92in /  1013.1hPa Calm     87.2% 0.00in /  0mm 0 W/m2
23:44 79.4 °F /  26.3 °C 75.5 °F /  24.2 °C 29.92in /  1013.1hPa Calm     88% 0.00in /  0mm 0 W/m2
23:49 79.2 °F /  26.2 °C 75.4 °F /  24.1 °C 29.92in /  1013.1hPa Calm     88% 0.00in /  0mm 0 W/m2
23:54 79.1 °F /  26.2 °C 75.3 °F /  24.1 °C 29.92in /  1013.1hPa Calm     88% 0.00in /  0mm 0 W/m2
23:59 79 °F /  26.1 °C 75.2 °F /  24 °C 29.92in /  1013.1hPa Calm     88% 0.00in /  0mm 0 W/m2
Hartford County Weather
Compliments of Weather Underground - 2 mb